sensor_id;sensor_type;location;lat;lon;timestamp;pressure;altitude;pressure_sealevel;temperature;humidity
61472;BME280;47337;54.068;12.114;2023-08-20T00:01:44;102070.41;;;21.24;100.00
61472;BME280;47337;54.068;12.114;2023-08-20T00:04:12;102073.09;;;21.23;100.00
61472;BME280;47337;54.068;12.114;2023-08-20T00:06:40;102078.44;;;21.21;100.00
61472;BME280;47337;54.068;12.114;2023-08-20T00:09:08;102087.41;;;21.18;100.00
61472;BME280;47337;54.068;12.114;2023-08-20T00:11:33;102089.16;;;21.19;100.00
61472;BME280;47337;54.068;12.114;2023-08-20T00:13:59;102093.63;;;21.16;100.00
61472;BME280;47337;54.068;12.114;2023-08-20T00:16:24;102101.63;;;21.17;100.00
61472;BME280;47337;54.068;12.114;2023-08-20T00:18:52;102107.81;;;21.23;100.00
61472;BME280;47337;54.068;12.114;2023-08-20T00:21:18;102115.81;;;21.24;100.00
61472;BME280;47337;54.068;12.114;2023-08-20T00:23:46;102136.31;;;21.21;100.00
61472;BME280;47337;54.068;12.114;2023-08-20T00:26:12;102132.78;;;21.20;100.00
61472;BME280;47337;54.068;12.114;2023-08-20T00:28:38;102135.50;;;21.18;100.00
61472;BME280;47337;54.068;12.114;2023-08-20T00:31:04;102145.25;;;21.19;100.00
61472;BME280;47337;54.068;12.114;2023-08-20T00:33:32;102149.72;;;21.17;100.00
61472;BME280;47337;54.068;12.114;2023-08-20T00:35:57;102155.06;;;21.17;100.00
61472;BME280;47337;54.068;12.114;2023-08-20T00:38:28;102161.28;;;21.16;100.00
61472;BME280;47337;54.068;12.114;2023-08-20T00:40:53;102172.00;;;21.15;100.00
61472;BME280;47337;54.068;12.114;2023-08-20T00:43:21;102169.34;;;21.13;100.00
61472;BME280;47337;54.068;12.114;2023-08-20T00:45:46;102182.69;;;21.13;100.00
61472;BME280;47337;54.068;12.114;2023-08-20T00:48:12;102190.69;;;21.13;100.00
61472;BME280;47337;54.068;12.114;2023-08-20T00:50:38;102196.03;;;21.13;100.00
61472;BME280;47337;54.068;12.114;2023-08-20T00:53:05;102198.72;;;21.12;100.00
61472;BME280;47337;54.068;12.114;2023-08-20T00:55:33;102203.25;;;21.05;100.00
61472;BME280;47337;54.068;12.114;2023-08-20T00:57:58;102225.56;;;20.98;100.00
61472;BME280;47337;54.068;12.114;2023-08-20T01:00:24;102226.50;;;20.94;100.00
61472;BME280;47337;54.068;12.114;2023-08-20T01:02:49;102238.09;;;20.90;100.00
61472;BME280;47337;54.068;12.114;2023-08-20T01:05:17;102241.69;;;20.88;100.00
61472;BME280;47337;54.068;12.114;2023-08-20T01:10:38;102263.09;;;20.86;100.00
61472;BME280;47337;54.068;12.114;2023-08-20T01:13:05;102258.72;;;20.76;100.00
61472;BME280;47337;54.068;12.114;2023-08-20T01:15:33;102268.50;;;20.74;100.00
61472;BME280;47337;54.068;12.114;2023-08-20T01:17:58;102258.72;;;20.73;100.00
61472;BME280;47337;54.068;12.114;2023-08-20T01:20:27;102248.97;;;20.67;100.00
61472;BME280;47337;54.068;12.114;2023-08-20T01:25:50;102270.44;;;20.55;100.00
61472;BME280;47337;54.068;12.114;2023-08-20T01:30:49;102287.38;;;20.46;100.00
61472;BME280;47337;54.068;12.114;2023-08-20T01:33:14;102289.19;;;20.41;100.00
61472;BME280;47337;54.068;12.114;2023-08-20T01:35:40;102297.19;;;20.40;100.00
61472;BME280;47337;54.068;12.114;2023-08-20T01:38:06;102298.09;;;20.36;100.00
61472;BME280;47337;54.068;12.114;2023-08-20T01:40:32;102303.44;;;20.31;100.00
61472;BME280;47337;54.068;12.114;2023-08-20T01:43:00;102303.44;;;20.31;100.00
61472;BME280;47337;54.068;12.114;2023-08-20T01:45:25;102305.22;;;20.28;100.00
61472;BME280;47337;54.068;12.114;2023-08-20T01:47:51;102310.56;;;20.32;100.00
61472;BME280;47337;54.068;12.114;2023-08-20T01:50:17;102321.22;;;20.32;100.00
61472;BME280;47337;54.068;12.114;2023-08-20T01:52:42;102331.03;;;20.29;100.00
61472;BME280;47337;54.068;12.114;2023-08-20T01:55:11;102336.34;;;20.32;100.00
61472;BME280;47337;54.068;12.114;2023-08-20T01:57:38;102350.56;;;20.34;100.00
61472;BME280;47337;54.068;12.114;2023-08-20T02:00:05;102353.25;;;20.32;100.00
61472;BME280;47337;54.068;12.114;2023-08-20T02:02:31;102354.13;;;20.30;100.00
61472;BME280;47337;54.068;12.114;2023-08-20T02:04:57;102369.25;;;20.32;100.00
61472;BME280;47337;54.068;12.114;2023-08-20T02:07:22;102388.81;;;20.40;100.00
61472;BME280;47337;54.068;12.114;2023-08-20T02:09:48;102385.25;;;20.41;100.00
61472;BME280;47337;54.068;12.114;2023-08-20T02:12:16;102402.09;;;20.48;100.00
61472;BME280;47337;54.068;12.114;2023-08-20T02:14:41;102404.78;;;20.51;100.00
61472;BME280;47337;54.068;12.114;2023-08-20T02:17:07;102418.97;;;20.61;100.00
61472;BME280;47337;54.068;12.114;2023-08-20T02:19:35;102421.63;;;20.64;100.00
61472;BME280;47337;54.068;12.114;2023-08-20T02:22:00;102427.84;;;20.63;100.00
61472;BME280;47337;54.068;12.114;2023-08-20T02:24:30;102434.94;;;20.67;100.00
61472;BME280;47337;54.068;12.114;2023-08-20T02:26:56;102443.81;;;20.75;100.00
61472;BME280;47337;54.068;12.114;2023-08-20T02:29:21;102444.72;;;20.72;100.00
61472;BME280;47337;54.068;12.114;2023-08-20T02:31:46;102450.03;;;20.75;100.00
61472;BME280;47337;54.068;12.114;2023-08-20T02:34:12;102459.81;;;20.76;100.00
61472;BME280;47337;54.068;12.114;2023-08-20T02:36:37;102469.56;;;20.85;100.00
61472;BME280;47337;54.068;12.114;2023-08-20T02:39:05;102474.91;;;20.85;100.00
61472;BME280;47337;54.068;12.114;2023-08-20T02:41:33;102475.84;;;20.76;100.00
61472;BME280;47337;54.068;12.114;2023-08-20T02:43:59;102479.38;;;20.77;100.00
61472;BME280;47337;54.068;12.114;2023-08-20T02:46:25;102473.22;;;20.63;100.00
61472;BME280;47337;54.068;12.114;2023-08-20T02:48:50;102468.81;;;20.51;100.00
61472;BME280;47337;54.068;12.114;2023-08-20T02:51:18;102457.28;;;20.38;100.00
61472;BME280;47337;54.068;12.114;2023-08-20T02:53:43;102470.63;;;20.31;100.00
61472;BME280;47337;54.068;12.114;2023-08-20T02:56:09;102471.53;;;20.36;100.00
61472;BME280;47337;54.068;12.114;2023-08-20T02:58:34;102473.28;;;20.34;100.00
61472;BME280;47337;54.068;12.114;2023-08-20T03:00:59;102461.72;;;20.24;100.00
61472;BME280;47337;54.068;12.114;2023-08-20T03:03:27;102459.97;;;20.17;100.00
61472;BME280;47337;54.068;12.114;2023-08-20T03:05:53;102455.53;;;20.13;100.00
61472;BME280;47337;54.068;12.114;2023-08-20T03:08:20;102457.34;;;20.09;100.00
61472;BME280;47337;54.068;12.114;2023-08-20T03:10:46;102467.09;;;20.15;100.00
61472;BME280;47337;54.068;12.114;2023-08-20T03:13:11;102458.19;;;20.13;100.00
61472;BME280;47337;54.068;12.114;2023-08-20T03:15:37;102463.50;;;20.28;100.00
61472;BME280;47337;54.068;12.114;2023-08-20T03:18:03;102452.88;;;20.16;100.00
61472;BME280;47337;54.068;12.114;2023-08-20T03:20:28;102451.13;;;20.06;100.00
61472;BME280;47337;54.068;12.114;2023-08-20T03:22:57;102452.88;;;20.02;100.00
61472;BME280;47337;54.068;12.114;2023-08-20T03:25:23;102458.25;;;20.01;100.00
61472;BME280;47337;54.068;12.114;2023-08-20T03:27:49;102457.34;;;20.08;100.00
61472;BME280;47337;54.068;12.114;2023-08-20T03:30:17;102460.03;;;19.99;100.00
61472;BME280;47337;54.068;12.114;2023-08-20T03:32:43;102452.91;;;19.86;100.00
61472;BME280;47337;54.068;12.114;2023-08-20T03:35:08;102457.34;;;19.93;100.00
61472;BME280;47337;54.068;12.114;2023-08-20T03:37:34;102446.69;;;19.84;100.00
61472;BME280;47337;54.068;12.114;2023-08-20T03:39:59;102446.72;;;19.79;100.00
61472;BME280;47337;54.068;12.114;2023-08-20T03:42:25;102446.72;;;19.70;100.00
61472;BME280;47337;54.068;12.114;2023-08-20T03:44:50;102453.81;;;19.74;100.00
61472;BME280;47337;54.068;12.114;2023-08-20T03:47:16;102445.81;;;19.72;100.00
61472;BME280;47337;54.068;12.114;2023-08-20T03:49:45;102451.16;;;19.76;100.00
61472;BME280;47337;54.068;12.114;2023-08-20T03:52:10;102438.72;;;19.78;100.00
61472;BME280;47337;54.068;12.114;2023-08-20T03:54:38;102446.69;;;19.82;100.00
61472;BME280;47337;54.068;12.114;2023-08-20T03:57:04;102437.81;;;19.74;100.00
61472;BME280;47337;54.068;12.114;2023-08-20T03:59:30;102435.16;;;19.72;100.00
61472;BME280;47337;54.068;12.114;2023-08-20T04:01:58;102428.94;;;19.73;100.00
61472;BME280;47337;54.068;12.114;2023-08-20T04:04:26;102438.72;;;19.78;100.00
61472;BME280;47337;54.068;12.114;2023-08-20T04:06:54;102433.38;;;19.71;100.00
61472;BME280;47337;54.068;12.114;2023-08-20T04:09:20;102428.97;;;19.70;100.00
61472;BME280;47337;54.068;12.114;2023-08-20T04:11:45;102425.41;;;19.78;100.00
61472;BME280;47337;54.068;12.114;2023-08-20T04:14:13;102422.72;;;19.74;100.00
61472;BME280;47337;54.068;12.114;2023-08-20T04:16:38;102418.28;;;19.80;100.00
61472;BME280;47337;54.068;12.114;2023-08-20T04:19:03;102406.75;;;19.81;100.00
61472;BME280;47337;54.068;12.114;2023-08-20T04:21:31;102402.28;;;19.89;100.00
61472;BME280;47337;54.068;12.114;2023-08-20T04:23:59;102395.16;;;19.82;100.00
61472;BME280;47337;54.068;12.114;2023-08-20T04:26:24;102386.28;;;19.78;100.00
61472;BME280;47337;54.068;12.114;2023-08-20T04:28:52;102373.84;;;19.74;100.00
61472;BME280;47337;54.068;12.114;2023-08-20T04:31:17;102365.88;;;19.69;100.00
61472;BME280;47337;54.068;12.114;2023-08-20T04:33:45;102362.34;;;19.58;100.00
61472;BME280;47337;54.068;12.114;2023-08-20T04:36:13;102365.88;;;19.60;100.00
61472;BME280;47337;54.068;12.114;2023-08-20T04:38:38;102357.00;;;19.61;100.00
61472;BME280;47337;54.068;12.114;2023-08-20T04:41:04;102345.47;;;19.52;100.00
61472;BME280;47337;54.068;12.114;2023-08-20T04:43:29;102331.25;;;19.54;100.00
61472;BME280;47337;54.068;12.114;2023-08-20T04:45:55;102312.59;;;19.45;100.00
61472;BME280;47337;54.068;12.114;2023-08-20T04:48:23;102299.28;;;19.56;100.00
61472;BME280;47337;54.068;12.114;2023-08-20T04:50:48;102297.50;;;19.59;100.00
61472;BME280;47337;54.068;12.114;2023-08-20T04:53:16;102293.03;;;19.67;100.00
61472;BME280;47337;54.068;12.114;2023-08-20T04:55:41;102273.47;;;19.71;100.00
61472;BME280;47337;54.068;12.114;2023-08-20T04:58:09;102258.44;;;19.51;100.00
61472;BME280;47337;54.068;12.114;2023-08-20T05:00:34;102238.84;;;19.62;100.00
61472;BME280;47337;54.068;12.114;2023-08-20T05:03:00;102228.22;;;19.55;100.00
61472;BME280;47337;54.068;12.114;2023-08-20T05:05:25;102208.72;;;19.48;100.00
61472;BME280;47337;54.068;12.114;2023-08-20T05:07:53;102198.03;;;19.50;100.00
61472;BME280;47337;54.068;12.114;2023-08-20T05:10:20;102190.03;;;19.53;100.00
61472;BME280;47337;54.068;12.114;2023-08-20T05:12:46;102190.03;;;19.54;100.00
61472;BME280;47337;54.068;12.114;2023-08-20T05:15:14;102189.16;;;19.55;100.00
61472;BME280;47337;54.068;12.114;2023-08-20T05:17:40;102186.47;;;19.55;100.00
61472;BME280;47337;54.068;12.114;2023-08-20T05:20:06;102181.13;;;19.61;100.00
61472;BME280;47337;54.068;12.114;2023-08-20T05:22:31;102169.63;;;19.55;100.00
61472;BME280;47337;54.068;12.114;2023-08-20T05:24:57;102162.50;;;19.58;100.00
61472;BME280;47337;54.068;12.114;2023-08-20T05:27:22;102158.03;;;19.60;100.00
61472;BME280;47337;54.068;12.114;2023-08-20T05:29:47;102135.00;;;19.41;100.00
61472;BME280;47337;54.068;12.114;2023-08-20T05:32:15;102117.28;;;19.38;100.00
61472;BME280;47337;54.068;12.114;2023-08-20T05:34:41;102104.81;;;19.39;100.00
61472;BME280;47337;54.068;12.114;2023-08-20T05:37:07;102096.84;;;19.36;100.00
61472;BME280;47337;54.068;12.114;2023-08-20T05:39:43;102086.19;;;19.37;100.00
61472;BME280;47337;54.068;12.114;2023-08-20T05:42:11;102067.66;;;19.15;100.00
61472;BME280;47337;54.068;12.114;2023-08-20T05:44:37;102050.75;;;19.23;100.00
61472;BME280;47337;54.068;12.114;2023-08-20T05:47:04;102039.16;;;19.30;100.00
61472;BME280;47337;54.068;12.114;2023-08-20T05:49:30;102032.09;;;19.28;100.00
61472;BME280;47337;54.068;12.114;2023-08-20T05:51:58;102004.53;;;19.30;100.00
61472;BME280;47337;54.068;12.114;2023-08-20T05:54:23;101989.34;;;19.48;100.00
61472;BME280;47337;54.068;12.114;2023-08-20T05:56:49;101980.38;;;19.65;100.00
61472;BME280;47337;54.068;12.114;2023-08-20T05:59:14;101956.47;;;19.58;100.00
61472;BME280;47337;54.068;12.114;2023-08-20T06:01:44;101935.94;;;19.70;100.00
61472;BME280;47337;54.068;12.114;2023-08-20T06:04:09;101906.72;;;19.60;100.00
61472;BME280;47337;54.068;12.114;2023-08-20T06:06:35;101887.13;;;19.64;100.00
61472;BME280;47337;54.068;12.114;2023-08-20T06:09:00;101874.66;;;19.66;100.00
61472;BME280;47337;54.068;12.114;2023-08-20T06:11:28;101857.81;;;19.61;100.00
61472;BME280;47337;54.068;12.114;2023-08-20T06:13:53;101854.25;;;19.66;100.00
61472;BME280;47337;54.068;12.114;2023-08-20T06:16:23;101848.88;;;19.69;100.00
61472;BME280;47337;54.068;12.114;2023-08-20T06:18:49;101843.56;;;19.69;100.00
61472;BME280;47337;54.068;12.114;2023-08-20T06:21:16;101831.13;;;19.68;100.00
61472;BME280;47337;54.068;12.114;2023-08-20T06:23:42;101794.66;;;19.73;100.00
61472;BME280;47337;54.068;12.114;2023-08-20T06:26:09;101777.78;;;19.71;100.00
61472;BME280;47337;54.068;12.114;2023-08-20T06:28:35;101768.66;;;19.92;100.00
61472;BME280;47337;54.068;12.114;2023-08-20T06:31:03;101758.03;;;19.91;100.00
61472;BME280;47337;54.068;12.114;2023-08-20T06:33:28;101747.25;;;19.98;100.00
61472;BME280;47337;54.068;12.114;2023-08-20T06:35:53;101740.00;;;20.11;100.00
61472;BME280;47337;54.068;12.114;2023-08-20T06:38:19;55380.69;;;-143.62;100.00
61472;BME280;47337;54.068;12.114;2023-08-20T06:40:44;55380.69;;;-143.62;100.00
61472;BME280;47337;54.068;12.114;2023-08-20T06:43:10;55380.69;;;-143.62;100.00
61472;BME280;47337;54.068;12.114;2023-08-20T06:45:35;55380.69;;;-143.62;100.00
61472;BME280;47337;54.068;12.114;2023-08-20T06:48:03;55380.69;;;-143.62;100.00
61472;BME280;47337;54.068;12.114;2023-08-20T06:50:33;55380.69;;;-143.62;100.00
61472;BME280;47337;54.068;12.114;2023-08-20T06:52:58;55380.69;;;-143.62;100.00
61472;BME280;47337;54.068;12.114;2023-08-20T06:55:24;55380.69;;;-143.62;100.00
61472;BME280;47337;54.068;12.114;2023-08-20T06:57:49;55380.69;;;-143.62;100.00
61472;BME280;47337;54.068;12.114;2023-08-20T07:00:17;55380.69;;;-143.62;100.00
61472;BME280;47337;54.068;12.114;2023-08-20T07:02:44;55380.69;;;-143.62;100.00
61472;BME280;47337;54.068;12.114;2023-08-20T07:05:12;55380.69;;;-143.62;100.00
61472;BME280;47337;54.068;12.114;2023-08-20T07:07:42;55380.69;;;-143.62;100.00
61472;BME280;47337;54.068;12.114;2023-08-20T07:10:07;55380.69;;;-143.62;100.00
61472;BME280;47337;54.068;12.114;2023-08-20T07:12:35;55380.69;;;-143.62;100.00
61472;BME280;47337;54.068;12.114;2023-08-20T07:15:01;55380.69;;;-143.62;100.00
61472;BME280;47337;54.068;12.114;2023-08-20T07:17:26;55380.69;;;-143.62;100.00
61472;BME280;47337;54.068;12.114;2023-08-20T07:19:54;55380.69;;;-143.62;100.00
61472;BME280;47337;54.068;12.114;2023-08-20T07:22:19;55380.69;;;-143.62;100.00
61472;BME280;47337;54.068;12.114;2023-08-20T07:24:44;55380.69;;;-143.62;100.00
61472;BME280;47337;54.068;12.114;2023-08-20T07:27:10;55380.69;;;-143.62;100.00
61472;BME280;47337;54.068;12.114;2023-08-20T07:29:38;55380.69;;;-143.62;100.00
61472;BME280;47337;54.068;12.114;2023-08-20T07:32:04;55380.69;;;-143.62;100.00
61472;BME280;47337;54.068;12.114;2023-08-20T07:34:30;55380.69;;;-143.62;100.00
61472;BME280;47337;54.068;12.114;2023-08-20T07:36:59;55380.69;;;-143.62;100.00
61472;BME280;47337;54.068;12.114;2023-08-20T07:39:28;55380.69;;;-143.62;100.00
61472;BME280;47337;54.068;12.114;2023-08-20T07:41:53;55380.69;;;-143.62;100.00
61472;BME280;47337;54.068;12.114;2023-08-20T07:44:23;55380.69;;;-143.62;100.00
61472;BME280;47337;54.068;12.114;2023-08-20T07:46:51;55380.69;;;-143.62;100.00
61472;BME280;47337;54.068;12.114;2023-08-20T07:49:19;55380.69;;;-143.62;100.00
61472;BME280;47337;54.068;12.114;2023-08-20T07:51:46;55380.69;;;-143.62;100.00
61472;BME280;47337;54.068;12.114;2023-08-20T07:54:14;55380.69;;;-143.62;100.00
61472;BME280;47337;54.068;12.114;2023-08-20T07:56:42;55380.69;;;-143.62;100.00
61472;BME280;47337;54.068;12.114;2023-08-20T07:59:07;55380.69;;;-143.62;100.00
61472;BME280;47337;54.068;12.114;2023-08-20T08:01:33;55380.69;;;-143.62;100.00
61472;BME280;47337;54.068;12.114;2023-08-20T08:03:58;55380.69;;;-143.62;100.00
61472;BME280;47337;54.068;12.114;2023-08-20T08:06:24;55380.69;;;-143.62;100.00
61472;BME280;47337;54.068;12.114;2023-08-20T08:08:49;55380.69;;;-143.62;100.00
61472;BME280;47337;54.068;12.114;2023-08-20T08:11:14;55380.69;;;-143.62;100.00
61472;BME280;47337;54.068;12.114;2023-08-20T08:13:42;55380.69;;;-143.62;100.00
61472;BME280;47337;54.068;12.114;2023-08-20T08:16:07;55380.69;;;-143.62;100.00
61472;BME280;47337;54.068;12.114;2023-08-20T08:18:33;55380.69;;;-143.62;100.00
61472;BME280;47337;54.068;12.114;2023-08-20T08:20:58;55380.69;;;-143.62;100.00
61472;BME280;47337;54.068;12.114;2023-08-20T08:23:26;55380.69;;;-143.62;100.00
61472;BME280;47337;54.068;12.114;2023-08-20T08:25:51;55380.69;;;-143.62;100.00
61472;BME280;47337;54.068;12.114;2023-08-20T08:28:17;55380.69;;;-143.62;100.00
61472;BME280;47337;54.068;12.114;2023-08-20T08:30:44;55380.69;;;-143.62;100.00
61472;BME280;47337;54.068;12.114;2023-08-20T08:33:12;55380.69;;;-143.62;100.00
61472;BME280;47337;54.068;12.114;2023-08-20T08:35:40;55380.69;;;-143.62;100.00
61472;BME280;47337;54.068;12.114;2023-08-20T08:38:05;55380.69;;;-143.62;100.00
61472;BME280;47337;54.068;12.114;2023-08-20T08:40:33;55380.69;;;-143.62;100.00
61472;BME280;47337;54.068;12.114;2023-08-20T08:42:59;55380.69;;;-143.62;100.00
61472;BME280;47337;54.068;12.114;2023-08-20T08:45:28;55380.69;;;-143.62;100.00
61472;BME280;47337;54.068;12.114;2023-08-20T08:47:55;55380.69;;;-143.62;100.00
61472;BME280;47337;54.068;12.114;2023-08-20T08:50:20;55380.69;;;-143.62;100.00
61472;BME280;47337;54.068;12.114;2023-08-20T08:52:47;55380.69;;;-143.62;100.00
61472;BME280;47337;54.068;12.114;2023-08-20T08:55:15;55380.69;;;-143.62;100.00
61472;BME280;47337;54.068;12.114;2023-08-20T08:57:41;55380.69;;;-143.62;100.00
61472;BME280;47337;54.068;12.114;2023-08-20T09:00:10;55380.69;;;-143.62;100.00
61472;BME280;47337;54.068;12.114;2023-08-20T09:02:35;55380.69;;;-143.62;100.00
61472;BME280;47337;54.068;12.114;2023-08-20T09:05:01;55380.69;;;-143.62;100.00
61472;BME280;47337;54.068;12.114;2023-08-20T09:07:26;55380.69;;;-143.62;100.00
61472;BME280;47337;54.068;12.114;2023-08-20T09:09:58;55380.69;;;-143.62;100.00
61472;BME280;47337;54.068;12.114;2023-08-20T09:12:25;55380.69;;;-143.62;100.00
61472;BME280;47337;54.068;12.114;2023-08-20T09:14:52;55380.69;;;-143.62;100.00
61472;BME280;47337;54.068;12.114;2023-08-20T09:17:19;55380.69;;;-143.62;100.00
61472;BME280;47337;54.068;12.114;2023-08-20T09:19:46;55380.69;;;-143.62;100.00
61472;BME280;47337;54.068;12.114;2023-08-20T09:22:12;55380.69;;;-143.62;100.00
61472;BME280;47337;54.068;12.114;2023-08-20T09:24:42;55380.69;;;-143.62;100.00
61472;BME280;47337;54.068;12.114;2023-08-20T09:27:08;55380.69;;;-143.62;100.00
61472;BME280;47337;54.068;12.114;2023-08-20T09:29:46;55380.69;;;-143.62;100.00
61472;BME280;47337;54.068;12.114;2023-08-20T09:32:38;55380.69;;;-143.62;100.00
61472;BME280;47337;54.068;12.114;2023-08-20T09:35:07;55380.69;;;-143.62;100.00
61472;BME280;47337;54.068;12.114;2023-08-20T09:37:45;55380.69;;;-143.62;100.00
61472;BME280;47337;54.068;12.114;2023-08-20T09:40:11;55380.69;;;-143.62;100.00
61472;BME280;47337;54.068;12.114;2023-08-20T09:42:36;55380.69;;;-143.62;100.00
61472;BME280;47337;54.068;12.114;2023-08-20T09:45:02;55380.69;;;-143.62;100.00
61472;BME280;47337;54.068;12.114;2023-08-20T09:47:35;55380.69;;;-143.62;100.00
61472;BME280;47337;54.068;12.114;2023-08-20T09:50:08;55380.69;;;-143.62;100.00
61472;BME280;47337;54.068;12.114;2023-08-20T09:52:39;55380.69;;;-143.62;100.00
61472;BME280;47337;54.068;12.114;2023-08-20T09:55:11;55380.69;;;-143.62;100.00
61472;BME280;47337;54.068;12.114;2023-08-20T09:57:39;55380.69;;;-143.62;100.00
61472;BME280;47337;54.068;12.114;2023-08-20T10:00:06;55380.69;;;-143.62;100.00
61472;BME280;47337;54.068;12.114;2023-08-20T10:02:35;55380.69;;;-143.62;100.00
61472;BME280;47337;54.068;12.114;2023-08-20T10:05:07;55380.69;;;-143.62;100.00
61472;BME280;47337;54.068;12.114;2023-08-20T10:07:34;55380.69;;;-143.62;100.00
61472;BME280;47337;54.068;12.114;2023-08-20T10:10:05;55380.69;;;-143.62;100.00
61472;BME280;47337;54.068;12.114;2023-08-20T10:12:31;55380.69;;;-143.62;100.00
61472;BME280;47337;54.068;12.114;2023-08-20T10:14:58;55380.69;;;-143.62;100.00
61472;BME280;47337;54.068;12.114;2023-08-20T10:17:29;55380.69;;;-143.62;100.00
61472;BME280;47337;54.068;12.114;2023-08-20T10:19:57;55380.69;;;-143.62;100.00
61472;BME280;47337;54.068;12.114;2023-08-20T10:22:22;55380.69;;;-143.62;100.00
61472;BME280;47337;54.068;12.114;2023-08-20T10:24:57;55380.69;;;-143.62;100.00
61472;BME280;47337;54.068;12.114;2023-08-20T10:27:30;55380.69;;;-143.62;100.00
61472;BME280;47337;54.068;12.114;2023-08-20T10:29:58;55380.69;;;-143.62;100.00
61472;BME280;47337;54.068;12.114;2023-08-20T10:32:54;55380.69;;;-143.62;100.00
61472;BME280;47337;54.068;12.114;2023-08-20T10:35:27;55380.69;;;-143.62;100.00
61472;BME280;47337;54.068;12.114;2023-08-20T10:38:06;55380.69;;;-143.62;100.00
61472;BME280;47337;54.068;12.114;2023-08-20T10:40:59;55380.69;;;-143.62;100.00
61472;BME280;47337;54.068;12.114;2023-08-20T10:43:30;55380.69;;;-143.62;100.00
61472;BME280;47337;54.068;12.114;2023-08-20T10:46:08;55380.69;;;-143.62;100.00
61472;BME280;47337;54.068;12.114;2023-08-20T10:48:38;55380.69;;;-143.62;100.00
61472;BME280;47337;54.068;12.114;2023-08-20T10:54:03;55380.69;;;-143.62;100.00
61472;BME280;47337;54.068;12.114;2023-08-20T10:56:48;55380.69;;;-143.62;100.00
61472;BME280;47337;54.068;12.114;2023-08-20T11:01:50;55380.69;;;-143.62;100.00
61472;BME280;47337;54.068;12.114;2023-08-20T11:04:18;55380.69;;;-143.62;100.00
61472;BME280;47337;54.068;12.114;2023-08-20T11:06:51;55380.69;;;-143.62;100.00
61472;BME280;47337;54.068;12.114;2023-08-20T11:09:24;55380.69;;;-143.62;100.00
61472;BME280;47337;54.068;12.114;2023-08-20T11:11:50;55380.69;;;-143.62;100.00
61472;BME280;47337;54.068;12.114;2023-08-20T11:14:18;55380.69;;;-143.62;100.00
61472;BME280;47337;54.068;12.114;2023-08-20T11:16:47;55380.69;;;-143.62;100.00
61472;BME280;47337;54.068;12.114;2023-08-20T11:19:14;55380.69;;;-143.62;100.00
61472;BME280;47337;54.068;12.114;2023-08-20T11:21:42;55380.69;;;-143.62;100.00
61472;BME280;47337;54.068;12.114;2023-08-20T11:24:10;55380.69;;;-143.62;100.00
61472;BME280;47337;54.068;12.114;2023-08-20T11:26:38;55380.69;;;-143.62;100.00
61472;BME280;47337;54.068;12.114;2023-08-20T11:29:11;55380.69;;;-143.62;100.00
61472;BME280;47337;54.068;12.114;2023-08-20T11:31:37;55380.69;;;-143.62;100.00
61472;BME280;47337;54.068;12.114;2023-08-20T11:34:05;55380.69;;;-143.62;100.00
61472;BME280;47337;54.068;12.114;2023-08-20T11:36:34;55380.69;;;-143.62;100.00
61472;BME280;47337;54.068;12.114;2023-08-20T11:39:02;55380.69;;;-143.62;100.00
61472;BME280;47337;54.068;12.114;2023-08-20T11:41:28;55380.69;;;-143.62;100.00
61472;BME280;47337;54.068;12.114;2023-08-20T11:43:56;55380.69;;;-143.62;100.00
61472;BME280;47337;54.068;12.114;2023-08-20T11:46:23;55380.69;;;-143.62;100.00
61472;BME280;47337;54.068;12.114;2023-08-20T11:49:09;55380.69;;;-143.62;100.00
61472;BME280;47337;54.068;12.114;2023-08-20T11:51:47;55380.69;;;-143.62;100.00
61472;BME280;47337;54.068;12.114;2023-08-20T11:54:16;55380.69;;;-143.62;100.00
61472;BME280;47337;54.068;12.114;2023-08-20T11:56:45;55380.69;;;-143.62;100.00
61472;BME280;47337;54.068;12.114;2023-08-20T11:59:11;55380.69;;;-143.62;100.00
61472;BME280;47337;54.068;12.114;2023-08-20T12:01:40;55380.69;;;-143.62;100.00
61472;BME280;47337;54.068;12.114;2023-08-20T12:04:06;55380.69;;;-143.62;100.00
61472;BME280;47337;54.068;12.114;2023-08-20T12:06:34;55380.69;;;-143.62;100.00
61472;BME280;47337;54.068;12.114;2023-08-20T12:09:00;55380.69;;;-143.62;100.00
61472;BME280;47337;54.068;12.114;2023-08-20T12:11:26;55380.69;;;-143.62;100.00
61472;BME280;47337;54.068;12.114;2023-08-20T12:13:52;55380.69;;;-143.62;100.00
61472;BME280;47337;54.068;12.114;2023-08-20T12:16:18;55380.69;;;-143.62;100.00
61472;BME280;47337;54.068;12.114;2023-08-20T12:18:46;55380.69;;;-143.62;100.00
61472;BME280;47337;54.068;12.114;2023-08-20T12:21:11;55380.69;;;-143.62;100.00
61472;BME280;47337;54.068;12.114;2023-08-20T12:23:37;55380.69;;;-143.62;100.00
61472;BME280;47337;54.068;12.114;2023-08-20T12:26:07;55380.69;;;-143.62;100.00
61472;BME280;47337;54.068;12.114;2023-08-20T12:28:33;55380.69;;;-143.62;100.00
61472;BME280;47337;54.068;12.114;2023-08-20T12:31:01;55380.69;;;-143.62;100.00
61472;BME280;47337;54.068;12.114;2023-08-20T12:33:28;55380.69;;;-143.62;100.00
61472;BME280;47337;54.068;12.114;2023-08-20T12:35:56;55380.69;;;-143.62;100.00
61472;BME280;47337;54.068;12.114;2023-08-20T12:38:24;55380.69;;;-143.62;100.00
61472;BME280;47337;54.068;12.114;2023-08-20T12:40:52;55380.69;;;-143.62;100.00